Etusivu
METAR-TAF:

METAR-TAF

Lentoasemat :

Nevis, Antigua ja Barbuda

Leveyspiiri: 17-12N, Pituuspiiri: 062-35W, korkeus merenpinnasta: 17 m

Tämänhetkinen sää

Tämä raportti tehtiin 56 minuuttia sitten, kello 16.00 UTC
Tuuli 10 kn idästä
Lämpötila 30°C
Kosteus 66%
Ilmanpaine 1016 hPa
Näkyvyys 10 km tai enemmän
Hajanaisia pilviä 2200 ft:n korkeudessa

METAR: TKPN 051600Z 10010KT 9999 SCT022 30/23 Q1016

Aika: 12:56 (16:56 UTC)

Sääennuste

Tämä raportti tehtiin 5 tuntia ja 56 minuuttia sitten, kello 11.00 UTC
Ennuste voimassa 05. päivästä klo 12 UTC - 06. päivään klo 12 UTC
Tuuli 12 kn idästä/kaakosta
Näkyvyys 10 km tai enemmän
Hajanaisia pilviä 2100 ft:n korkeudessa
Todennäköisyys 30% :
Ajoittain
05. päivästä klo 12 UTC - 05. päivään klo 15 UTC
vesikuuroja

TAF: TKPN 051100Z 0512/0612 11012KT 9999 SCT021 PROB30 TEMPO 0512/0515 SHRA

Säähavainnot ja -ennusteet yli 4000 lentoasemalta (METAR- ja TAF-raportit).

Käytössä olevat sääasemat on merkitty karttaan keltaisilla ja punaisilla pisteillä.

Aseta hiiri pisteen päälle nähdäksesi sääaseman nimen.

Klikkaa sitten nähdäksesi säähavainnot ja -ennusteet.

Kartan vaihtaminen: klikkaa mustalla rastilla varustettuja vihreitä pisteitä, niin voit zoomata sisään; viivalla varustettua vihreää pistettä, niin voit zoomata ulos tai vihreitä nuolia, niin pääset viereisille kartoille.


METAR-TAF: